Time;durP1;ratioP1;P1;durP2;ratioP2;P2;SDS_P1;SDS_P2;PMS_P1;PMS_P2;Temp;Humidity;BMP_temperature;BMP_pressure;BME280_temperature;BME280_humidity;BME280_pressure;Samples;Min_cycle;Max_cycle;Signal;HPM_P1;HPM_P2
2022/08/02 00:02:09;;;;;;;0.90;0.90;;;;;19.10;96263.00;;;;5137151;28;20204;-51
2022/08/02 00:04:36;;;;;;;0.40;0.40;;;;;19.10;96265.00;;;;5137094;28;20357;-53
2022/08/02 00:07:03;;;;;;;0.50;0.50;;;;;19.10;96268.00;;;;5137065;28;20198;-53
2022/08/02 00:09:30;;;;;;;0.43;0.43;;;;;19.00;96264.00;;;;5137246;28;20248;-55
2022/08/02 00:11:57;;;;;;;0.50;0.50;;;;;18.90;96260.00;;;;5137122;28;20190;-54
2022/08/02 00:14:26;;;;;;;0.57;0.57;;;;;18.80;96263.00;;;;5137211;28;20212;-57
2022/08/02 00:16:53;;;;;;;0.50;0.50;;;;;18.90;96265.00;;;;5137360;28;20225;-52
2022/08/02 00:19:20;;;;;;;0.53;0.53;;;;;18.80;96265.00;;;;5118845;28;20245;-52
2022/08/02 00:21:47;;;;;;;0.60;0.60;;;;;18.80;96260.00;;;;5136760;28;20221;-52
2022/08/02 00:24:14;;;;;;;0.60;0.60;;;;;18.80;96256.00;;;;5119114;28;20678;-52
2022/08/02 00:26:41;;;;;;;0.67;0.67;;;;;18.80;96252.00;;;;5136652;28;20186;-52
2022/08/02 00:29:08;;;;;;;0.40;0.40;;;;;18.70;96257.00;;;;5136691;28;20223;-52
2022/08/02 00:31:35;;;;;;;0.57;0.57;;;;;18.60;96258.00;;;;5136707;28;20189;-52
2022/08/02 00:34:02;;;;;;;0.43;0.43;;;;;18.60;96258.00;;;;5136586;28;20301;-52
2022/08/02 00:36:29;;;;;;;0.50;0.50;;;;;18.70;96253.00;;;;5136772;28;20196;-52
2022/08/02 00:38:56;;;;;;;0.57;0.57;;;;;18.70;96253.00;;;;5136539;28;20225;-52
2022/08/02 00:41:23;;;;;;;0.50;0.50;;;;;18.70;96250.00;;;;5136531;28;20213;-52
2022/08/02 00:43:52;;;;;;;0.50;0.50;;;;;18.70;96248.00;;;;5136451;28;20235;-52
2022/08/02 00:46:19;;;;;;;0.50;0.50;;;;;18.70;96242.00;;;;5136624;28;20193;-55
2022/08/02 00:48:47;;;;;;;0.60;0.60;;;;;18.70;96258.00;;;;5136725;28;20221;-54
2022/08/02 00:51:16;;;;;;;0.40;0.40;;;;;18.60;96249.00;;;;5136993;28;20309;-54
2022/08/02 00:53:43;;;;;;;0.87;0.87;;;;;18.60;96254.00;;;;5136559;28;20197;-53
2022/08/02 00:56:10;;;;;;;0.40;0.40;;;;;18.50;96250.00;;;;5136320;28;20231;-52
2022/08/02 00:58:37;;;;;;;0.37;0.37;;;;;18.40;96256.00;;;;5136276;28;20193;-52
2022/08/02 01:01:05;;;;;;;0.50;0.50;;;;;18.40;96250.00;;;;5136168;28;20237;-52
2022/08/02 01:03:32;;;;;;;0.67;0.67;;;;;18.20;96256.00;;;;5136158;28;20221;-52
2022/08/02 01:05:59;;;;;;;0.63;0.63;;;;;18.20;96263.00;;;;5136081;27;20301;-52
2022/08/02 01:08:25;;;;;;;0.60;0.60;;;;;18.20;96263.00;;;;5136083;28;20388;-53
2022/08/02 01:10:52;;;;;;;0.40;0.40;;;;;18.30;96262.00;;;;5136151;28;20197;-63
2022/08/02 01:13:20;;;;;;;0.50;0.50;;;;;18.30;96261.00;;;;5136009;28;20200;-55
2022/08/02 01:15:51;;;;;;;0.40;0.40;;;;;18.30;96257.00;;;;5135898;28;20201;-52
2022/08/02 01:18:23;;;;;;;0.73;0.73;;;;;18.20;96252.00;;;;5117872;28;20279;-52
2022/08/02 01:21:11;;;;;;;4.90;1.43;;;;;18.20;96252.00;;;;5135949;28;20190;-53
2022/08/02 01:23:53;;;;;;;0.93;0.93;;;;;18.20;96254.00;;;;5135775;28;20213;-52
2022/08/02 01:26:34;;;;;;;0.40;0.40;;;;;18.20;96258.00;;;;5135833;28;20185;-51
2022/08/02 01:29:07;;;;;;;0.60;0.60;;;;;18.10;96272.00;;;;5135676;28;20683;-53
2022/08/02 01:31:38;;;;;;;0.80;0.80;;;;;18.10;96271.00;;;;5135711;28;20663;-52
2022/08/02 01:34:12;;;;;;;0.43;0.43;;;;;18.00;96269.00;;;;5135618;28;20240;-54
2022/08/02 01:36:43;;;;;;;0.60;0.60;;;;;17.90;96260.00;;;;5135804;28;20194;-54
2022/08/02 01:39:13;;;;;;;0.67;0.67;;;;;17.90;96265.00;;;;5135613;28;20205;-55
2022/08/02 01:41:41;;;;;;;0.80;0.80;;;;;17.80;96272.00;;;;5135681;28;20205;-53
2022/08/02 01:44:12;;;;;;;0.40;0.40;;;;;17.80;96275.00;;;;5135555;28;20639;-52
2022/08/02 01:46:41;;;;;;;0.77;0.77;;;;;17.90;96281.00;;;;5135587;28;20337;-52
2022/08/02 01:49:17;;;;;;;1.70;1.20;;;;;17.90;96274.00;;;;5135378;28;20217;-52
2022/08/02 01:54:33;;;;;;;0.70;0.70;;;;;17.90;96275.00;;;;5135485;28;20274;-52
2022/08/02 01:57:06;;;;;;;0.60;0.60;;;;;17.90;96280.00;;;;5135238;28;20221;-52
2022/08/02 01:59:34;;;;;;;0.40;0.40;;;;;17.90;96284.00;;;;5135273;28;20213;-52
2022/08/02 02:02:02;;;;;;;0.50;0.50;;;;;17.90;96287.00;;;;5135147;28;20224;-52
2022/08/02 02:04:31;;;;;;;0.57;0.57;;;;;17.90;96283.00;;;;5135182;28;20189;-53
2022/08/02 02:06:58;;;;;;;0.57;0.57;;;;;17.90;96282.00;;;;5135037;28;20201;-53
2022/08/02 02:09:29;;;;;;;0.40;0.40;;;;;17.90;96278.00;;;;5135069;28;20213;-52
2022/08/02 02:11:59;;;;;;;0.30;0.30;;;;;17.70;96282.00;;;;5135177;28;20186;-53
2022/08/02 02:14:28;;;;;;;0.50;0.50;;;;;17.60;96279.00;;;;5134996;28;20268;-52
2022/08/02 02:16:58;;;;;;;0.70;0.70;;;;;17.70;96271.00;;;;5134975;28;20212;-54
2022/08/02 02:19:27;;;;;;;0.67;0.67;;;;;17.70;96265.00;;;;5134464;27;20263;-53
2022/08/02 02:21:54;;;;;;;0.60;0.60;;;;;17.60;96269.00;;;;5134945;28;20204;-52
2022/08/02 02:24:23;;;;;;;0.53;0.53;;;;;17.60;96257.00;;;;5134842;28;20668;-54
2022/08/02 02:26:51;;;;;;;0.90;0.90;;;;;17.60;96258.00;;;;5134929;28;20633;-52
2022/08/02 02:29:21;;;;;;;1.90;1.10;;;;;17.50;96248.00;;;;5116741;28;20316;-54
2022/08/02 02:31:51;;;;;;;0.50;0.50;;;;;17.50;96244.00;;;;5134956;28;20305;-59
2022/08/02 02:34:27;;;;;;;0.73;0.73;;;;;17.50;96242.00;;;;5134860;28;20208;-53
2022/08/02 02:36:57;;;;;;;0.50;0.50;;;;;17.40;96234.00;;;;5134786;28;20220;-56
2022/08/02 02:39:27;;;;;;;0.53;0.53;;;;;17.40;96235.00;;;;5134714;28;20208;-53
2022/08/02 02:41:56;;;;;;;1.10;1.10;;;;;17.30;96227.00;;;;5134706;28;20213;-57
2022/08/02 02:44:24;;;;;;;0.50;0.50;;;;;17.20;96223.00;;;;5134718;28;20289;-53
2022/08/02 02:46:53;;;;;;;1.80;0.97;;;;;17.20;96231.00;;;;5134533;28;20221;-51
2022/08/02 02:49:22;;;;;;;0.73;0.73;;;;;17.10;96223.00;;;;5134533;28;20349;-51
2022/08/02 02:51:52;;;;;;;0.60;0.60;;;;;17.10;96218.00;;;;5116517;28;20520;-53
2022/08/02 02:54:21;;;;;;;0.60;0.60;;;;;17.10;96217.00;;;;5116566;28;20201;-54
2022/08/02 02:56:49;;;;;;;0.70;0.70;;;;;17.20;96216.00;;;;5134507;28;20199;-53
2022/08/02 02:59:17;;;;;;;0.60;0.60;;;;;17.20;96221.00;;;;5134541;28;20288;-53
2022/08/02 03:01:47;;;;;;;0.50;0.50;;;;;17.20;96220.00;;;;5134509;28;20193;-54
2022/08/02 03:04:17;;;;;;;0.50;0.50;;;;;17.20;96223.00;;;;5134324;28;20217;-54
2022/08/02 03:06:47;;;;;;;0.50;0.50;;;;;17.10;96220.00;;;;5134295;28;20197;-53
2022/08/02 03:09:14;;;;;;;0.70;0.70;;;;;17.00;96228.00;;;;5134189;28;20687;-53
2022/08/02 03:11:40;;;;;;;0.70;0.70;;;;;17.00;96227.00;;;;5134414;28;20208;-54
2022/08/02 03:14:10;;;;;;;0.50;0.50;;;;;16.90;96231.00;;;;5134130;28;20217;-53
2022/08/02 03:16:42;;;;;;;0.63;0.63;;;;;16.70;96231.00;;;;5134275;28;20216;-55
2022/08/02 03:19:09;;;;;;;0.97;0.97;;;;;16.70;96229.00;;;;5134305;28;20510;-54
2022/08/02 03:21:39;;;;;;;0.47;0.47;;;;;16.70;96232.00;;;;5134168;28;20186;-54
2022/08/02 03:24:07;;;;;;;0.50;0.50;;;;;16.60;96230.00;;;;5134039;28;20636;-53
2022/08/02 03:26:34;;;;;;;0.30;0.30;;;;;16.50;96232.00;;;;5134096;28;20571;-53
2022/08/02 03:29:01;;;;;;;0.40;0.40;;;;;16.60;96231.00;;;;5134117;27;20637;-54
2022/08/02 03:31:28;;;;;;;0.50;0.50;;;;;16.60;96234.00;;;;5136837;28;20214;-54
2022/08/02 03:34:00;;;;;;;0.60;0.60;;;;;16.50;96232.00;;;;5137667;28;20196;-55
2022/08/02 03:36:30;;;;;;;0.43;0.43;;;;;16.40;96238.00;;;;5137489;28;20217;-54
2022/08/02 03:38:58;;;;;;;0.50;0.50;;;;;16.50;96222.00;;;;5137543;28;20546;-55
2022/08/02 03:41:27;;;;;;;0.40;0.40;;;;;16.50;96237.00;;;;5119442;28;20205;-55
2022/08/02 03:43:54;;;;;;;0.80;0.80;;;;;16.60;96234.00;;;;5137460;28;20205;-59
2022/08/02 03:46:25;;;;;;;0.70;0.70;;;;;16.70;96246.00;;;;5137359;28;20196;-52
2022/08/02 03:48:53;;;;;;;0.60;0.60;;;;;16.70;96237.00;;;;5137192;28;20217;-53
2022/08/02 03:51:21;;;;;;;0.47;0.47;;;;;16.70;96233.00;;;;5137332;28;20189;-55
2022/08/02 03:53:49;;;;;;;0.50;0.50;;;;;16.60;96237.00;;;;5137197;28;20233;-54
2022/08/02 03:56:16;;;;;;;0.63;0.63;;;;;16.50;96248.00;;;;5137253;28;20189;-55
2022/08/02 03:58:44;;;;;;;0.50;0.50;;;;;16.40;96245.00;;;;5137294;28;20217;-55
2022/08/02 04:01:11;;;;;;;0.70;0.70;;;;;16.40;96237.00;;;;5137621;28;20335;-55
2022/08/02 04:03:40;;;;;;;0.60;0.60;;;;;16.20;96247.00;;;;5137426;28;20280;-59
2022/08/02 04:06:09;;;;;;;0.60;0.60;;;;;16.10;96244.00;;;;5137151;28;20215;-53
2022/08/02 04:08:36;;;;;;;1.40;1.30;;;;;16.10;96236.00;;;;5137077;28;20300;-53
2022/08/02 04:13:49;;;;;;;0.57;0.57;;;;;16.30;96246.00;;;;5137357;28;20170;-54
2022/08/02 04:16:21;;;;;;;0.60;0.60;;;;;16.30;96248.00;;;;5136878;28;20217;-51
2022/08/02 04:18:54;;;;;;;0.57;0.57;;;;;16.20;96243.00;;;;5136906;28;20201;-52
2022/08/02 04:21:24;;;;;;;0.63;0.63;;;;;16.20;96243.00;;;;5136865;28;20213;-52
2022/08/02 04:23:52;;;;;;;0.60;0.60;;;;;16.30;96248.00;;;;5137009;28;20185;-53
2022/08/02 04:26:20;;;;;;;0.40;0.40;;;;;16.30;96257.00;;;;5136846;28;20531;-52
2022/08/02 04:28:49;;;;;;;0.47;0.47;;;;;16.30;96255.00;;;;5136744;28;20300;-51
2022/08/02 04:31:17;;;;;;;1.10;1.00;;;;;16.20;96260.00;;;;5118690;28;20199;-53
2022/08/02 04:33:47;;;;;;;0.67;0.67;;;;;16.20;96262.00;;;;5136686;28;20213;-52
2022/08/02 04:36:14;;;;;;;0.60;0.60;;;;;16.30;96254.00;;;;5136607;28;20205;-53
2022/08/02 04:38:41;;;;;;;0.60;0.60;;;;;16.40;96255.00;;;;5136531;28;20254;-52
2022/08/02 04:41:08;;;;;;;0.50;0.50;;;;;16.50;96258.00;;;;5135705;27;20529;-53
2022/08/02 04:43:35;;;;;;;0.70;0.70;;;;;16.50;96261.00;;;;5136481;28;20245;-54
2022/08/02 04:46:05;;;;;;;0.90;0.90;;;;;16.60;96260.00;;;;5136508;28;20229;-53
2022/08/02 04:48:32;;;;;;;0.60;0.60;;;;;16.60;96266.00;;;;5136357;28;20200;-53
2022/08/02 04:50:59;;;;;;;0.50;0.50;;;;;16.60;96263.00;;;;5118403;28;20292;-55
2022/08/02 04:53:26;;;;;;;0.60;0.60;;;;;16.80;96263.00;;;;5136560;28;20679;-54
2022/08/02 04:55:53;;;;;;;0.60;0.60;;;;;16.90;96270.00;;;;5136334;28;20228;-55
2022/08/02 04:58:22;;;;;;;0.70;0.70;;;;;17.00;96264.00;;;;5136310;28;20193;-53
2022/08/02 05:00:49;;;;;;;0.50;0.50;;;;;17.10;96264.00;;;;5118192;28;20699;-55
2022/08/02 05:03:16;;;;;;;0.50;0.50;;;;;17.10;96266.00;;;;5136210;28;20292;-53
2022/08/02 05:05:43;;;;;;;0.60;0.60;;;;;17.00;96259.00;;;;5117959;28;20225;-53
2022/08/02 05:08:10;;;;;;;0.53;0.53;;;;;17.00;96265.00;;;;5118188;28;20534;-54
2022/08/02 05:10:37;;;;;;;0.87;0.87;;;;;17.10;96271.00;;;;5136051;28;20228;-54
2022/08/02 05:13:05;;;;;;;0.53;0.53;;;;;17.10;96268.00;;;;5118106;28;20262;-55
2022/08/02 05:15:32;;;;;;;0.80;0.80;;;;;17.10;96265.00;;;;5136004;28;20208;-54
2022/08/02 05:18:01;;;;;;;0.63;0.63;;;;;17.20;96274.00;;;;5135886;28;20209;-55
2022/08/02 05:20:28;;;;;;;1.63;1.03;;;;;17.30;96280.00;;;;5135910;28;20261;-52
2022/08/02 05:22:55;;;;;;;0.67;0.67;;;;;17.30;96266.00;;;;5117992;28;20289;-53
2022/08/02 05:25:22;;;;;;;0.50;0.50;;;;;17.30;96265.00;;;;5135808;28;20270;-52
2022/08/02 05:27:51;;;;;;;0.90;0.90;;;;;17.40;96257.00;;;;5135637;28;20197;-53
2022/08/02 05:30:18;;;;;;;0.50;0.50;;;;;17.40;96248.00;;;;5135652;28;20198;-53
2022/08/02 05:32:47;;;;;;;0.60;0.60;;;;;17.50;96255.00;;;;5135726;28;20200;-53
2022/08/02 05:35:18;;;;;;;0.83;0.83;;;;;17.60;96257.00;;;;5117671;28;20197;-52
2022/08/02 05:37:49;;;;;;;0.60;0.60;;;;;17.70;96263.00;;;;5135632;28;20194;-54
2022/08/02 05:40:16;;;;;;;0.70;0.70;;;;;17.70;96259.00;;;;5135448;28;20232;-55
2022/08/02 05:42:43;;;;;;;0.50;0.50;;;;;17.60;96263.00;;;;5117383;28;20193;-55
2022/08/02 05:45:14;;;;;;;0.40;0.40;;;;;17.30;96270.00;;;;5135424;28;20221;-57
2022/08/02 05:47:44;;;;;;;0.40;0.40;;;;;17.20;96271.00;;;;5135459;28;20221;-53
2022/08/02 05:50:11;;;;;;;0.70;0.70;;;;;17.30;96274.00;;;;5135373;28;20216;-55
2022/08/02 05:52:46;;;;;;;0.67;0.67;;;;;17.30;96274.00;;;;5134518;27;20629;-55
2022/08/02 05:55:17;;;;;;;2.20;1.40;;;;;17.30;96268.00;;;;5135341;28;20261;-55
2022/08/02 05:57:52;;;;;;;0.50;0.50;;;;;17.50;96267.00;;;;5135381;28;20205;-54
2022/08/02 06:00:20;;;;;;;0.50;0.50;;;;;17.70;96273.00;;;;5135275;28;20192;-53
2022/08/02 06:03:21;;;;;;;0.50;0.50;;;;;17.90;96269.00;;;;5135377;28;20576;-53
2022/08/02 06:05:53;;;;;;;0.90;0.90;;;;;17.90;96271.00;;;;5135267;28;20701;-56
2022/08/02 06:08:22;;;;;;;5.13;0.70;;;;;17.90;96268.00;;;;5135137;28;20244;-53
2022/08/02 06:11:00;;;;;;;0.50;0.50;;;;;18.00;96268.00;;;;5117041;28;20620;-54
2022/08/02 06:13:27;;;;;;;1.00;0.90;;;;;18.00;96272.00;;;;5135004;28;20263;-53
2022/08/02 06:15:58;;;;;;;0.50;0.50;;;;;18.10;96281.00;;;;5134998;28;20672;-54
2022/08/02 06:18:27;;;;;;;0.60;0.60;;;;;18.10;96272.00;;;;5135166;28;20217;-54
2022/08/02 06:20:57;;;;;;;0.70;0.70;;;;;18.30;96267.00;;;;5135101;28;20321;-52
2022/08/02 06:23:27;;;;;;;1.33;1.23;;;;;18.40;96270.00;;;;5116859;28;20201;-53
2022/08/02 06:25:59;;;;;;;0.43;0.43;;;;;18.40;96264.00;;;;5134951;28;20182;-52
2022/08/02 06:28:26;;;;;;;0.57;0.57;;;;;18.50;96267.00;;;;5134860;28;20207;-52
2022/08/02 06:30:53;;;;;;;0.60;0.60;;;;;18.60;96266.00;;;;5116522;28;20264;-52
2022/08/02 06:33:42;;;;;;;1.53;1.43;;;;;18.80;96260.00;;;;5116866;28;20213;-55
2022/08/02 06:36:15;;;;;;;0.40;0.40;;;;;18.80;96260.00;;;;5134650;28;20227;-51
2022/08/02 06:38:47;;;;;;;0.63;0.63;;;;;18.90;96263.00;;;;5134669;28;20193;-53
2022/08/02 06:41:15;;;;;;;0.50;0.50;;;;;19.00;96252.00;;;;5134469;28;20217;-54
2022/08/02 06:43:48;;;;;;;0.50;0.50;;;;;19.10;96255.00;;;;5134725;28;20198;-54
2022/08/02 06:46:15;;;;;;;0.30;0.30;;;;;19.00;96258.00;;;;5116580;28;20197;-54
2022/08/02 06:48:42;;;;;;;0.60;0.60;;;;;19.10;96255.00;;;;5134252;28;20679;-54
2022/08/02 06:51:09;;;;;;;0.40;0.40;;;;;19.30;96263.00;;;;5134424;28;20639;-53
2022/08/02 06:53:36;;;;;;;0.60;0.60;;;;;19.40;96269.00;;;;5134351;28;20648;-53
2022/08/02 06:56:06;;;;;;;0.67;0.67;;;;;19.40;96270.00;;;;5116340;28;20373;-53
2022/08/02 06:58:33;;;;;;;0.70;0.70;;;;;19.40;96264.00;;;;5134426;28;20196;-53
2022/08/02 07:01:00;;;;;;;0.50;0.50;;;;;19.50;96271.00;;;;5134390;28;20597;-53
2022/08/02 07:03:27;;;;;;;2.20;1.43;;;;;19.80;96263.00;;;;5134355;28;20201;-54
2022/08/02 07:05:54;;;;;;;1.13;1.13;;;;;19.90;96265.00;;;;5137822;27;20284;-54
2022/08/02 07:08:21;;;;;;;2.73;1.30;;;;;19.90;96269.00;;;;5138034;28;20329;-55
2022/08/02 07:10:48;;;;;;;1.30;1.20;;;;;20.00;96269.00;;;;5119960;28;20231;-56
2022/08/02 07:13:15;;;;;;;0.47;0.47;;;;;20.10;96271.00;;;;5137980;28;20220;-58
2022/08/02 07:15:43;;;;;;;0.60;0.60;;;;;20.30;96273.00;;;;5137919;28;20568;-53
2022/08/02 07:18:13;;;;;;;0.77;0.73;;;;;20.40;96266.00;;;;5137877;28;20208;-53
2022/08/02 07:20:41;;;;;;;0.60;0.60;;;;;20.60;96271.00;;;;5137781;28;20213;-53
2022/08/02 07:23:08;;;;;;;0.53;0.53;;;;;20.70;96261.00;;;;5137741;28;20652;-54
2022/08/02 07:25:37;;;;;;;0.90;0.90;;;;;20.80;96260.00;;;;5119661;28;20197;-55
2022/08/02 07:28:04;;;;;;;0.30;0.30;;;;;20.90;96266.00;;;;5137657;28;20200;-53
2022/08/02 07:30:32;;;;;;;0.60;0.60;;;;;21.10;96267.00;;;;5137648;28;20779;-54
2022/08/02 07:32:59;;;;;;;0.70;0.70;;;;;21.10;96273.00;;;;5137485;28;20250;-54
2022/08/02 07:35:27;;;;;;;0.80;0.80;;;;;21.10;96270.00;;;;5137557;28;20201;-54
2022/08/02 07:37:54;;;;;;;0.85;0.82;;;;;21.20;96281.00;;;;5137514;28;20194;-54
2022/08/02 07:40:21;;;;;;;0.40;0.40;;;;;21.30;96276.00;;;;5137645;28;20209;-54
2022/08/02 07:42:51;;;;;;;0.50;0.50;;;;;21.30;96288.00;;;;5137464;28;20633;-53
2022/08/02 07:45:19;;;;;;;1.23;1.23;;;;;21.40;96289.00;;;;5137264;28;20212;-53
2022/08/02 07:47:46;;;;;;;0.80;0.80;;;;;21.30;96279.00;;;;5137422;28;20276;-58
2022/08/02 07:50:17;;;;;;;0.60;0.60;;;;;21.30;96282.00;;;;5137230;28;20567;-55
2022/08/02 07:52:45;;;;;;;0.73;0.73;;;;;21.30;96288.00;;;;5137235;28;20209;-53
2022/08/02 07:55:13;;;;;;;0.95;0.95;;;;;21.50;96279.00;;;;5137379;28;20343;-53
2022/08/02 07:57:40;;;;;;;0.73;0.73;;;;;21.60;96279.00;;;;5137111;28;20193;-54
2022/08/02 08:00:09;;;;;;;9.93;1.10;;;;;21.90;96279.00;;;;5137292;28;20233;-54
2022/08/02 08:02:36;;;;;;;0.80;0.80;;;;;22.10;96282.00;;;;5137223;28;20834;-58
2022/08/02 08:05:03;;;;;;;0.80;0.80;;;;;22.40;96276.00;;;;5137097;28;20640;-55
2022/08/02 08:07:30;;;;;;;0.60;0.60;;;;;22.40;96282.00;;;;5137099;28;20527;-54
2022/08/02 08:09:58;;;;;;;1.00;1.00;;;;;22.50;96286.00;;;;5136955;28;20213;-55
2022/08/02 08:12:25;;;;;;;0.90;0.90;;;;;22.70;96283.00;;;;5137044;28;20177;-54
2022/08/02 08:14:52;;;;;;;0.90;0.90;;;;;22.70;96274.00;;;;5137026;28;20231;-55
2022/08/02 08:17:19;;;;;;;0.80;0.80;;;;;22.50;96284.00;;;;5136232;27;20777;-54
2022/08/02 08:19:46;;;;;;;0.90;0.90;;;;;22.40;96280.00;;;;5136877;28;20301;-54
2022/08/02 08:22:13;;;;;;;0.70;0.70;;;;;22.40;96278.00;;;;5136898;28;20556;-54
2022/08/02 08:24:41;;;;;;;0.80;0.80;;;;;22.60;96288.00;;;;5136805;28;20240;-53
2022/08/02 08:27:13;;;;;;;0.73;0.73;;;;;22.70;96284.00;;;;5136805;28;20223;-54
2022/08/02 08:29:42;;;;;;;0.80;0.77;;;;;22.90;96284.00;;;;5136597;28;20303;-53
2022/08/02 08:32:09;;;;;;;0.63;0.63;;;;;23.20;96278.00;;;;5136654;28;20193;-53
2022/08/02 08:34:36;;;;;;;0.98;0.93;;;;;23.30;96276.00;;;;5136626;28;20216;-53
2022/08/02 08:37:03;;;;;;;0.50;0.50;;;;;23.30;96282.00;;;;5136583;28;20193;-52
2022/08/02 08:39:30;;;;;;;0.70;0.70;;;;;23.30;96278.00;;;;5136537;28;20636;-51
2022/08/02 08:41:58;;;;;;;1.23;1.23;;;;;23.40;96289.00;;;;5136426;28;20299;-52
2022/08/02 08:44:26;;;;;;;0.70;0.70;;;;;23.40;96280.00;;;;5136437;28;20296;-53
2022/08/02 08:46:55;;;;;;;2.83;2.05;;;;;23.60;96271.00;;;;5136501;28;20193;-53
2022/08/02 08:49:30;;;;;;;0.95;0.95;;;;;23.80;96268.00;;;;5136465;28;20308;-52
2022/08/02 08:52:02;;;;;;;0.80;0.80;;;;;23.90;96263.00;;;;5136455;28;20200;-54
2022/08/02 08:54:30;;;;;;;0.73;0.73;;;;;24.00;96258.00;;;;5118126;28;20695;-51
2022/08/02 08:56:58;;;;;;;0.85;0.85;;;;;24.00;96264.00;;;;5136307;28;20194;-50
2022/08/02 08:59:25;;;;;;;1.23;1.13;;;;;23.90;96265.00;;;;5136219;28;20287;-51
2022/08/02 09:01:54;;;;;;;0.70;0.70;;;;;24.10;96269.00;;;;5136120;28;20224;-51
2022/08/02 09:04:21;;;;;;;0.82;0.82;;;;;24.40;96270.00;;;;5136202;28;20190;-51
2022/08/02 09:06:49;;;;;;;0.85;0.85;;;;;24.60;96271.00;;;;5136000;28;20224;-53
2022/08/02 09:09:18;;;;;;;1.17;1.17;;;;;24.70;96272.00;;;;5136100;28;20225;-53
2022/08/02 09:11:45;;;;;;;0.70;0.70;;;;;24.70;96271.00;;;;5136093;28;20193;-53
2022/08/02 09:14:26;;;;;;;1.02;1.02;;;;;24.80;96258.00;;;;5117865;28;20284;-53
2022/08/02 09:17:04;;;;;;;0.52;0.52;;;;;25.00;96258.00;;;;5136021;28;20524;-53
2022/08/02 09:19:32;;;;;;;0.85;0.85;;;;;25.30;96266.00;;;;5135903;28;20225;-54
2022/08/02 09:22:01;;;;;;;0.70;0.70;;;;;25.10;96253.00;;;;5117617;28;20655;-53
2022/08/02 09:24:28;;;;;;;0.40;0.40;;;;;25.00;96260.00;;;;5135812;28;20224;-55
2022/08/02 09:26:55;;;;;;;0.95;0.95;;;;;25.10;96258.00;;;;5135581;27;20200;-52
2022/08/02 09:29:25;;;;;;;0.50;0.50;;;;;25.30;96260.00;;;;5134648;28;20254;-52
2022/08/02 09:32:01;;;;;;;0.75;0.75;;;;;25.30;96254.00;;;;5135843;28;20189;-52
2022/08/02 09:34:44;;;;;;;1.30;1.17;;;;;25.50;96261.00;;;;5135736;28;20655;-53
2022/08/02 09:37:22;;;;;;;0.98;0.98;;;;;25.40;96265.00;;;;5135573;28;20217;-54
2022/08/02 09:39:49;;;;;;;0.70;0.70;;;;;25.50;96261.00;;;;5135741;28;20624;-56
2022/08/02 09:42:16;;;;;;;1.27;1.17;;;;;25.80;96265.00;;;;5135819;28;20597;-54
2022/08/02 09:44:54;;;;;;;0.60;0.60;;;;;25.50;96267.00;;;;5135678;28;20625;-55
2022/08/02 09:47:21;;;;;;;0.50;0.50;;;;;25.70;96261.00;;;;5117324;28;20679;-54
2022/08/02 09:49:48;;;;;;;1.08;1.08;;;;;25.60;96266.00;;;;5135324;28;20213;-52
2022/08/02 09:52:21;;;;;;;0.55;0.55;;;;;25.90;96264.00;;;;5135333;28;20656;-52
2022/08/02 09:54:47;;;;;;;0.70;0.70;;;;;26.00;96262.00;;;;5135442;28;20189;-53
2022/08/02 09:57:25;;;;;;;0.75;0.75;;;;;26.10;96263.00;;;;5117208;28;20193;-54
2022/08/02 09:59:55;;;;;;;1.00;1.00;;;;;26.10;96270.00;;;;5135168;28;20225;-52
2022/08/02 10:02:22;;;;;;;1.08;1.08;;;;;26.30;96265.00;;;;5135219;28;20505;-53
2022/08/02 10:04:49;;;;;;;1.20;1.20;;;;;26.60;96273.00;;;;5135701;28;20224;-53
2022/08/02 10:07:16;;;;;;;0.85;0.85;;;;;26.50;96264.00;;;;5135349;28;20217;-52
2022/08/02 10:09:47;;;;;;;0.60;0.60;;;;;26.80;96259.00;;;;5135070;28;20222;-59
2022/08/02 10:12:15;;;;;;;0.70;0.70;;;;;26.60;96255.00;;;;5117223;28;20493;-53
2022/08/02 10:14:42;;;;;;;0.70;0.70;;;;;26.60;96256.00;;;;5135202;28;20185;-61
2022/08/02 10:17:10;;;;;;;0.70;0.70;;;;;26.90;96251.00;;;;5135502;28;20281;-58
2022/08/02 10:19:37;;;;;;;0.80;0.80;;;;;26.90;96250.00;;;;5138981;28;20665;-54
2022/08/02 10:22:06;;;;;;;1.08;1.08;;;;;26.70;96248.00;;;;5134939;28;20221;-53
2022/08/02 10:24:38;;;;;;;2.50;1.42;;;;;26.40;96245.00;;;;5135050;28;20201;-53
2022/08/02 10:27:11;;;;;;;0.60;0.60;;;;;26.60;96241.00;;;;5134778;28;20221;-52
2022/08/02 10:29:39;;;;;;;0.50;0.50;;;;;26.70;96244.00;;;;5135119;28;20228;-53
2022/08/02 10:32:13;;;;;;;1.08;1.08;;;;;26.90;96236.00;;;;5134832;28;20189;-53
2022/08/02 10:34:47;;;;;;;0.82;0.82;;;;;27.20;96243.00;;;;5134910;28;20220;-53
2022/08/02 10:37:16;;;;;;;0.95;0.95;;;;;27.10;96235.00;;;;5134795;28;20200;-51
2022/08/02 10:39:44;;;;;;;1.67;1.58;;;;;27.10;96239.00;;;;5134204;27;20551;-52
2022/08/02 10:42:12;;;;;;;0.60;0.60;;;;;27.30;96230.00;;;;5116633;28;20689;-51
2022/08/02 10:44:42;;;;;;;0.70;0.70;;;;;27.60;96230.00;;;;5134342;28;20361;-51
2022/08/02 10:47:25;;;;;;;0.70;0.70;;;;;27.80;96221.00;;;;5134382;28;20189;-50
2022/08/02 10:49:55;;;;;;;0.73;0.73;;;;;27.60;96217.00;;;;5113042;28;20587;-50
2022/08/02 10:52:23;;;;;;;0.70;0.70;;;;;27.80;96223.00;;;;5114049;28;20190;-52
2022/08/02 10:54:56;;;;;;;1.13;1.05;;;;;27.90;96216.00;;;;5113928;28;20205;-50
2022/08/02 10:57:25;;;;;;;1.70;1.48;;;;;28.20;96219.00;;;;5095997;28;20240;-50
2022/08/02 10:59:55;;;;;;;1.20;1.20;;;;;28.20;96215.00;;;;5114072;28;20696;-50
2022/08/02 11:02:47;;;;;;;1.55;1.45;;;;;28.70;96218.00;;;;5113902;28;20210;-50
2022/08/02 11:05:15;;;;;;;0.77;0.77;;;;;28.70;96208.00;;;;5072333;28;20205;-50
2022/08/02 11:07:47;;;;;;;0.88;0.88;;;;;29.10;96205.00;;;;5113886;28;20301;-54
2022/08/02 11:10:40;;;;;;;0.82;0.82;;;;;29.20;96212.00;;;;5095938;28;20587;-53
2022/08/02 11:13:14;;;;;;;0.70;0.70;;;;;28.70;96204.00;;;;5113712;28;20218;-54
2022/08/02 11:15:59;;;;;;;0.68;0.68;;;;;29.10;96208.00;;;;5113766;28;20232;-53
2022/08/02 11:19:02;;;;;;;0.63;0.63;;;;;29.30;96208.00;;;;5113639;28;20296;-52
2022/08/02 11:21:32;;;;;;;0.63;0.63;;;;;29.50;96214.00;;;;5109921;28;20210;-55
2022/08/02 11:24:29;;;;;;;0.73;0.73;;;;;29.20;96206.00;;;;5113770;28;20262;-52
2022/08/02 11:26:57;;;;;;;0.68;0.68;;;;;29.40;96188.00;;;;5055575;28;20650;-51
2022/08/02 11:29:36;;;;;;;3.13;0.80;;;;;29.90;96193.00;;;;5113514;28;20228;-52
2022/08/02 11:32:04;;;;;;;0.70;0.70;;;;;30.10;96187.00;;;;5113514;28;20202;-53
2022/08/02 11:34:32;;;;;;;0.60;0.60;;;;;29.80;96212.00;;;;5113448;28;20186;-54
2022/08/02 11:37:00;;;;;;;2.05;1.08;;;;;29.40;96194.00;;;;5113349;28;20213;-56
2022/08/02 11:39:27;;;;;;;0.43;0.43;;;;;29.10;96209.00;;;;5113484;28;20225;-54
2022/08/02 11:41:56;;;;;;;0.88;0.88;;;;;28.20;96178.00;;;;5095461;28;20244;-53
2022/08/02 11:44:23;;;;;;;0.75;0.75;;;;;28.90;96186.00;;;;5113537;28;20217;-58
2022/08/02 11:46:55;;;;;;;0.50;0.50;;;;;29.60;96188.00;;;;5113302;28;20276;-53
2022/08/02 11:49:22;;;;;;;0.80;0.80;;;;;29.30;96179.00;;;;5095468;28;20239;-54
2022/08/02 11:51:59;;;;;;;1.27;1.23;;;;;29.80;96181.00;;;;5115004;28;20190;-55
2022/08/02 11:54:30;;;;;;;1.00;0.98;;;;;30.00;96182.00;;;;5116753;28;20227;-54
2022/08/02 11:57:13;;;;;;;3.03;1.35;;;;;30.20;96196.00;;;;5116753;28;20202;-54
2022/08/02 11:59:41;;;;;;;0.60;0.60;;;;;30.00;96204.00;;;;5116715;28;20258;-51
2022/08/02 12:02:11;;;;;;;0.82;0.82;;;;;30.00;96176.00;;;;5116723;28;20190;-51
2022/08/02 12:04:39;;;;;;;0.70;0.70;;;;;30.40;96178.00;;;;5116576;28;20317;-52
2022/08/02 12:07:07;;;;;;;0.65;0.65;;;;;30.80;96180.00;;;;5116702;28;20285;-52
2022/08/02 12:09:37;;;;;;;0.77;0.77;;;;;30.60;96199.00;;;;5116686;28;20659;-52
2022/08/02 12:12:04;;;;;;;0.50;0.50;;;;;29.50;96189.00;;;;5098644;28;20202;-52
2022/08/02 12:14:40;;;;;;;1.25;1.17;;;;;28.90;96193.00;;;;5116580;28;20229;-53
2022/08/02 12:19:52;;;;;;;0.68;0.68;;;;;29.00;96168.00;;;;5116447;28;20229;-52
2022/08/02 12:22:25;;;;;;;0.93;0.93;;;;;30.00;96162.00;;;;5098427;28;20242;-53
2022/08/02 12:24:56;;;;;;;0.57;0.57;;;;;30.50;96172.00;;;;5116405;28;20205;-53
2022/08/02 12:27:33;;;;;;;1.60;1.42;;;;;31.00;96174.00;;;;5116284;28;20283;-53
2022/08/02 12:30:06;;;;;;;0.80;0.80;;;;;31.40;96174.00;;;;5116212;28;20564;-53
2022/08/02 12:32:34;;;;;;;1.05;1.05;;;;;31.50;96172.00;;;;5116339;28;20202;-53
2022/08/02 12:35:08;;;;;;;1.10;1.08;;;;;31.90;96172.00;;;;5116151;28;20202;-53
2022/08/02 12:37:36;;;;;;;0.80;0.80;;;;;32.30;96175.00;;;;5116154;28;20221;-52
2022/08/02 12:40:23;;;;;;;10.65;0.95;;;;;32.00;96173.00;;;;5115935;28;20687;-54